createdAt,value
2023-03-06T00:00:53.705Z,3.40
2023-03-06T00:03:24.231Z,3.40
2023-03-06T00:05:56.661Z,3.42
2023-03-06T00:08:27.169Z,3.44
2023-03-06T00:10:57.949Z,3.49
2023-03-06T00:13:31.418Z,3.51
2023-03-06T00:16:02.277Z,3.53
2023-03-06T00:18:32.015Z,3.53
2023-03-06T00:21:02.052Z,3.53
2023-03-06T00:23:31.305Z,3.54
2023-03-06T00:26:00.642Z,3.55
2023-03-06T00:28:32.631Z,3.53
2023-03-06T00:31:05.165Z,3.54
2023-03-06T00:33:34.690Z,3.52
2023-03-06T00:36:08.419Z,3.56
2023-03-06T00:38:38.942Z,3.56
2023-03-06T00:41:10.911Z,3.57
2023-03-06T00:43:41.423Z,3.56
2023-03-06T00:46:10.762Z,3.60
2023-03-06T00:48:41.683Z,3.61
2023-03-06T00:51:13.798Z,3.62
2023-03-06T00:53:43.578Z,3.61
2023-03-06T00:56:13.261Z,3.60
2023-03-06T00:58:42.912Z,3.62
2023-03-06T01:01:12.722Z,3.62
2023-03-06T01:03:42.576Z,3.64
2023-03-06T01:06:12.078Z,3.63
2023-03-06T01:08:41.550Z,3.64
2023-03-06T01:11:11.451Z,3.65
2023-03-06T01:13:41.159Z,3.66
2023-03-06T01:16:12.970Z,3.67
2023-03-06T01:18:44.106Z,3.68
2023-03-06T01:21:14.470Z,3.70
2023-03-06T01:23:45.634Z,3.69
2023-03-06T01:26:15.746Z,3.73
2023-03-06T01:28:45.880Z,3.75
2023-03-06T01:31:16.878Z,3.72
2023-03-06T01:33:46.753Z,3.73
2023-03-06T01:36:16.878Z,3.71
2023-03-06T01:38:48.614Z,3.70
2023-03-06T01:41:19.381Z,3.68
2023-03-06T01:43:51.342Z,3.72
2023-03-06T01:46:32.523Z,3.67
2023-03-06T01:49:20.637Z,3.67
2023-03-06T01:52:03.724Z,3.61
2023-03-06T01:54:36.967Z,3.58
2023-03-06T01:57:34.813Z,3.53
2023-03-06T02:00:09.663Z,3.51
2023-03-06T02:02:49.033Z,3.44
2023-03-06T02:05:18.698Z,3.42
2023-03-06T02:07:49.241Z,3.39
2023-03-06T02:10:19.729Z,3.40
2023-03-06T02:12:50.482Z,3.39
2023-03-06T02:15:24.141Z,3.44
2023-03-06T02:17:53.970Z,3.48
2023-03-06T02:20:38.725Z,3.52
2023-03-06T02:23:31.926Z,3.55
2023-03-06T02:26:02.906Z,3.56
2023-03-06T02:28:32.669Z,3.53
2023-03-06T02:31:03.952Z,3.50
2023-03-06T02:33:34.649Z,3.49
2023-03-06T02:36:06.876Z,3.52
2023-03-06T02:38:41.972Z,3.52
2023-03-06T02:41:13.261Z,3.56
2023-03-06T02:43:45.311Z,3.60
2023-03-06T02:46:16.647Z,3.63
2023-03-06T02:48:47.032Z,3.65
2023-03-06T02:51:16.643Z,3.65
2023-03-06T02:53:46.039Z,3.67
2023-03-06T02:56:17.679Z,3.65
2023-03-06T02:58:47.729Z,3.67
2023-03-06T03:01:17.535Z,3.67
2023-03-06T03:03:47.634Z,3.68
2023-03-06T03:06:17.472Z,3.69
2023-03-06T03:08:46.905Z,3.67
2023-03-06T03:11:16.873Z,3.66
2023-03-06T03:13:48.000Z,3.64
2023-03-06T03:16:21.443Z,3.62
2023-03-06T03:18:53.465Z,3.61
2023-03-06T03:21:24.601Z,3.61
2023-03-06T03:23:55.868Z,3.58
2023-03-06T03:26:27.272Z,3.55
2023-03-06T03:29:06.615Z,3.52
2023-03-06T03:31:35.942Z,3.48
2023-03-06T03:34:06.097Z,3.50
2023-03-06T03:36:38.553Z,3.51
2023-03-06T03:39:08.397Z,3.49
2023-03-06T03:41:40.101Z,3.44
2023-03-06T03:44:13.131Z,3.48
2023-03-06T03:46:42.673Z,3.46
2023-03-06T03:49:17.025Z,3.47
2023-03-06T03:51:46.835Z,3.49
2023-03-06T03:54:16.310Z,3.50
2023-03-06T03:56:47.948Z,3.49
2023-03-06T03:59:25.937Z,3.48
2023-03-06T04:02:07.695Z,3.47
2023-03-06T04:04:40.979Z,3.44
2023-03-06T04:07:10.900Z,3.42
2023-03-06T04:09:40.932Z,3.40
2023-03-06T04:12:10.846Z,3.40
2023-03-06T04:14:40.041Z,3.39
2023-03-06T04:17:09.429Z,3.38
2023-03-06T04:19:39.427Z,3.41
2023-03-06T04:22:11.579Z,3.44
2023-03-06T04:24:41.286Z,3.47
2023-03-06T04:27:11.605Z,3.49
2023-03-06T04:29:41.235Z,3.40
2023-03-06T04:32:10.594Z,3.35
2023-03-06T04:34:41.310Z,3.32
2023-03-06T04:37:24.416Z,3.31
2023-03-06T04:39:56.234Z,3.31
2023-03-06T04:42:25.958Z,3.29
2023-03-06T04:44:55.657Z,3.28
2023-03-06T04:47:25.058Z,3.27
2023-03-06T04:49:54.746Z,3.22
2023-03-06T04:52:26.983Z,3.20
2023-03-06T04:55:09.793Z,3.13
2023-03-06T04:57:40.519Z,3.14
2023-03-06T05:00:15.256Z,3.20
2023-03-06T05:02:45.475Z,3.16
2023-03-06T05:05:15.576Z,3.17
2023-03-06T05:07:45.869Z,3.18
2023-03-06T05:10:18.882Z,3.17
2023-03-06T05:12:48.724Z,3.20
2023-03-06T05:15:18.732Z,3.20
2023-03-06T05:17:49.119Z,3.16
2023-03-06T05:20:19.003Z,3.06
2023-03-06T05:22:48.321Z,3.09
2023-03-06T05:25:18.047Z,3.07
2023-03-06T05:27:47.305Z,3.02
2023-03-06T05:30:17.036Z,3.00
2023-03-06T05:32:46.502Z,3.04
2023-03-06T05:35:21.214Z,3.06
2023-03-06T05:37:51.312Z,3.12
2023-03-06T05:40:20.990Z,3.15
2023-03-06T05:42:50.829Z,3.21
2023-03-06T05:45:20.518Z,3.23
2023-03-06T05:47:50.238Z,3.25
2023-03-06T05:50:19.629Z,3.27
2023-03-06T05:52:51.962Z,3.37
2023-03-06T05:55:22.942Z,3.41
2023-03-06T05:57:53.562Z,3.42
2023-03-06T06:00:26.258Z,3.38
2023-03-06T06:02:55.575Z,3.50
2023-03-06T06:05:25.052Z,3.50
2023-03-06T06:07:54.800Z,3.37
2023-03-06T06:10:24.528Z,3.39
2023-03-06T06:12:53.983Z,3.40
2023-03-06T06:15:23.711Z,3.36
2023-03-06T06:17:53.376Z,3.39
2023-03-06T06:20:25.027Z,3.40
2023-03-06T06:22:54.661Z,3.43
2023-03-06T06:25:24.381Z,3.46
2023-03-06T06:27:56.762Z,3.47
2023-03-06T06:30:28.797Z,3.54
2023-03-06T06:32:58.367Z,3.57
2023-03-06T06:35:28.253Z,3.63
2023-03-06T06:37:58.202Z,3.68
2023-03-06T06:40:29.366Z,3.76
2023-03-06T06:42:59.661Z,3.79
2023-03-06T06:45:29.642Z,3.83
2023-03-06T06:48:02.510Z,3.82
2023-03-06T06:50:34.257Z,3.79
2023-03-06T06:53:03.960Z,3.81
2023-03-06T06:55:36.001Z,3.85
2023-03-06T06:58:05.374Z,3.93
2023-03-06T07:00:37.417Z,4.02
2023-03-06T07:03:06.831Z,4.12
2023-03-06T07:05:37.002Z,4.16
2023-03-06T07:08:06.738Z,4.32
2023-03-06T07:10:36.806Z,4.43
2023-03-06T07:13:07.364Z,4.47
2023-03-06T07:15:37.490Z,4.57
2023-03-06T07:18:07.220Z,4.68
2023-03-06T07:20:37.616Z,4.73
2023-03-06T07:23:09.904Z,4.57
2023-03-06T07:25:39.693Z,4.60
2023-03-06T07:28:09.274Z,4.75
2023-03-06T07:30:42.036Z,4.81
2023-03-06T07:33:11.823Z,4.93
2023-03-06T07:35:45.551Z,5.04
2023-03-06T07:38:15.989Z,5.10
2023-03-06T07:40:46.130Z,5.09
2023-03-06T07:43:19.304Z,5.23
2023-03-06T07:45:59.540Z,5.34
2023-03-06T07:48:29.245Z,5.37
2023-03-06T07:51:04.231Z,5.40
2023-03-06T07:53:34.901Z,5.58
2023-03-06T07:56:10.026Z,5.64
2023-03-06T07:58:46.001Z,5.67
2023-03-06T08:01:21.321Z,5.71
2023-03-06T08:03:51.528Z,5.70
2023-03-06T08:06:27.138Z,5.71
2023-03-06T08:08:58.050Z,5.69
2023-03-06T08:11:29.350Z,5.61
2023-03-06T08:13:59.486Z,5.66
2023-03-06T08:16:30.751Z,5.72
2023-03-06T08:19:03.340Z,5.71
2023-03-06T08:21:36.597Z,5.75
2023-03-06T08:24:07.574Z,5.80
2023-03-06T08:26:38.072Z,5.87
2023-03-06T08:29:12.405Z,5.97
2023-03-06T08:31:44.101Z,6.01
2023-03-06T08:34:20.825Z,6.18
2023-03-06T08:36:50.954Z,6.18
2023-03-06T08:39:20.862Z,6.19
2023-03-06T08:41:50.407Z,6.16
2023-03-06T08:44:20.340Z,6.11
2023-03-06T08:46:50.803Z,6.15
2023-03-06T08:49:20.435Z,6.25
2023-03-06T08:51:49.817Z,6.34
2023-03-06T08:54:22.691Z,6.48
2023-03-06T08:56:52.393Z,6.51
2023-03-06T08:59:21.825Z,6.56
2023-03-06T09:01:51.236Z,6.54
2023-03-06T09:04:20.722Z,6.63
2023-03-06T09:06:50.138Z,6.75
2023-03-06T09:09:20.675Z,6.83
2023-03-06T09:11:50.273Z,6.87
2023-03-06T09:14:19.365Z,6.92
2023-03-06T09:16:48.607Z,6.95
2023-03-06T09:19:18.285Z,6.96
2023-03-06T09:21:47.756Z,7.02
2023-03-06T09:24:18.202Z,7.07
2023-03-06T09:26:53.511Z,7.07
2023-03-06T09:29:23.209Z,7.11
2023-03-06T09:31:52.833Z,7.15
2023-03-06T09:34:22.248Z,7.18
2023-03-06T09:36:56.699Z,7.22
2023-03-06T09:39:27.453Z,7.30
2023-03-06T09:41:59.671Z,7.32
2023-03-06T09:44:32.274Z,7.38
2023-03-06T09:47:01.960Z,7.51
2023-03-06T09:50:11.389Z,7.60
2023-03-06T09:52:49.770Z,7.67
2023-03-06T09:55:25.595Z,7.67
2023-03-06T09:58:07.594Z,7.69
2023-03-06T10:00:44.319Z,7.74
2023-03-06T10:03:26.640Z,7.79
2023-03-06T10:06:10.340Z,7.77
2023-03-06T10:09:02.080Z,7.79
2023-03-06T10:12:00.267Z,7.82
2023-03-06T10:14:47.068Z,7.72
2023-03-06T10:17:19.740Z,7.64
2023-03-06T10:19:49.543Z,7.57
2023-03-06T10:22:24.938Z,7.54
2023-03-06T10:25:05.980Z,7.52
2023-03-06T10:27:46.280Z,7.63
2023-03-06T10:30:27.010Z,7.79
2023-03-06T10:33:00.206Z,8.02
2023-03-06T10:35:34.551Z,8.13
2023-03-06T10:38:33.204Z,8.27
2023-03-06T10:41:11.285Z,8.42
2023-03-06T10:43:42.035Z,8.44
2023-03-06T10:46:27.120Z,8.47
2023-03-06T10:49:06.139Z,8.53
2023-03-06T10:51:36.225Z,8.59
2023-03-06T10:54:19.970Z,8.57
2023-03-06T10:56:49.362Z,8.59
2023-03-06T10:59:26.018Z,8.61
2023-03-06T11:02:14.757Z,8.63
2023-03-06T11:04:47.284Z,8.64
2023-03-06T11:07:21.713Z,8.54
2023-03-06T11:09:59.604Z,8.45
2023-03-06T11:12:33.408Z,8.29
2023-03-06T11:15:10.093Z,8.20
2023-03-06T11:17:52.945Z,8.10
2023-03-06T11:20:24.234Z,8.02
2023-03-06T11:23:15.773Z,8.02
2023-03-06T11:25:51.279Z,8.01
2023-03-06T11:28:32.464Z,8.04
2023-03-06T11:31:32.777Z,8.02
2023-03-06T11:34:32.662Z,7.98
2023-03-06T11:37:07.213Z,7.84
2023-03-06T11:40:03.733Z,7.78
2023-03-06T11:42:37.925Z,7.79
2023-03-06T11:45:46.420Z,7.74
2023-03-06T11:48:15.457Z,7.72
2023-03-06T11:50:52.523Z,7.74
2023-03-06T11:53:33.034Z,7.75
2023-03-06T11:56:20.510Z,7.69
2023-03-06T11:58:58.633Z,7.68
2023-03-06T12:01:49.306Z,7.56
2023-03-06T12:04:44.823Z,7.65
2023-03-06T12:07:36.501Z,7.66
2023-03-06T12:10:19.651Z,7.70
2023-03-06T12:12:48.080Z,7.76
2023-03-06T12:15:44.750Z,7.81
2023-03-06T12:18:22.377Z,7.88
2023-03-06T12:20:53.906Z,7.97
2023-03-06T12:23:41.202Z,8.02
2023-03-06T12:26:20.026Z,8.10
2023-03-06T12:29:22.720Z,8.17
2023-03-06T12:32:10.393Z,8.21
2023-03-06T12:35:05.992Z,8.25
2023-03-06T12:37:59.996Z,8.33
2023-03-06T12:40:46.763Z,8.27
2023-03-06T12:43:40.248Z,8.27
2023-03-06T12:46:20.398Z,8.32
2023-03-06T12:49:23.025Z,8.29
2023-03-06T12:52:00.150Z,8.36
2023-03-06T12:54:31.852Z,8.34
2023-03-06T12:57:01.306Z,8.29
2023-03-06T12:59:48.919Z,8.25
2023-03-06T13:02:29.372Z,8.24
2023-03-06T13:05:19.069Z,8.25
2023-03-06T13:07:59.828Z,8.27
2023-03-06T13:10:32.357Z,8.28
2023-03-06T13:13:01.948Z,8.37
2023-03-06T13:15:43.319Z,8.47
2023-03-06T13:18:24.180Z,8.53
2023-03-06T13:20:56.771Z,8.57
2023-03-06T13:23:37.664Z,8.68
2023-03-06T13:26:25.926Z,8.65
2023-03-06T13:28:56.244Z,8.72
2023-03-06T13:31:35.302Z,8.60
2023-03-06T13:34:05.647Z,8.61
2023-03-06T13:36:38.406Z,8.57
2023-03-06T13:39:12.206Z,8.54
2023-03-06T13:41:53.757Z,8.47
2023-03-06T13:44:25.752Z,8.46
2023-03-06T13:47:08.893Z,8.54
2023-03-06T13:49:45.801Z,8.56
2023-03-06T13:52:44.564Z,8.54
2023-03-06T13:55:29.774Z,8.57
2023-03-06T13:58:10.847Z,8.69
2023-03-06T14:00:45.163Z,8.73
2023-03-06T14:03:34.084Z,8.83
2023-03-06T14:06:31.215Z,8.95
2023-03-06T14:09:00.175Z,8.97
2023-03-06T14:11:28.980Z,9.10
2023-03-06T14:13:58.305Z,9.17
2023-03-06T14:16:40.505Z,9.11
2023-03-06T14:19:17.928Z,9.14
2023-03-06T14:21:49.959Z,9.16
2023-03-06T14:24:31.829Z,9.17
2023-03-06T14:27:00.954Z,9.14
2023-03-06T14:29:30.413Z,9.06
2023-03-06T14:32:01.258Z,8.96
2023-03-06T14:34:33.147Z,8.89
2023-03-06T14:37:05.978Z,8.81
2023-03-06T14:39:40.499Z,8.69
2023-03-06T14:42:26.772Z,8.57
2023-03-06T14:45:08.408Z,8.51
2023-03-06T14:47:37.232Z,8.39
2023-03-06T14:50:26.620Z,8.30
2023-03-06T14:53:01.277Z,8.21
2023-03-06T14:55:30.733Z,8.17
2023-03-06T14:58:22.656Z,8.10
2023-03-06T15:00:54.739Z,8.07
2023-03-06T15:03:46.057Z,8.03
2023-03-06T15:06:21.180Z,7.88
2023-03-06T15:09:14.571Z,7.86
2023-03-06T15:11:52.866Z,7.82
2023-03-06T15:14:28.205Z,7.73
2023-03-06T15:16:56.738Z,7.71
2023-03-06T15:19:25.149Z,7.65
2023-03-06T15:21:53.634Z,7.60
2023-03-06T15:24:36.375Z,7.56
2023-03-06T15:27:07.426Z,7.46
2023-03-06T15:29:39.663Z,7.40
2023-03-06T15:32:14.355Z,7.36
2023-03-06T15:34:42.956Z,7.33
2023-03-06T15:37:27.890Z,7.28
2023-03-06T15:40:09.687Z,7.16
2023-03-06T15:42:38.110Z,7.14
2023-03-06T15:45:19.716Z,7.06
2023-03-06T15:47:54.627Z,6.92
2023-03-06T15:50:29.036Z,6.85
2023-03-06T15:52:57.524Z,6.73
2023-03-06T15:55:26.295Z,6.73
2023-03-06T15:58:03.174Z,6.68
2023-03-06T16:00:34.478Z,6.61
2023-03-06T16:03:03.260Z,6.55
2023-03-06T16:05:31.726Z,6.47
2023-03-06T16:08:00.181Z,6.44
2023-03-06T16:10:30.052Z,6.39
2023-03-06T16:13:04.736Z,6.34
2023-03-06T16:15:37.985Z,6.30
2023-03-06T16:18:07.033Z,6.26
2023-03-06T16:20:35.403Z,6.21
2023-03-06T16:23:08.109Z,6.17
2023-03-06T16:25:38.414Z,6.10
2023-03-06T16:28:11.782Z,6.08
2023-03-06T16:30:41.342Z,6.01
2023-03-06T16:33:12.763Z,5.94
2023-03-06T16:35:41.484Z,5.88
2023-03-06T16:38:10.301Z,5.86
2023-03-06T16:40:41.594Z,5.83
2023-03-06T16:43:10.843Z,5.78
2023-03-06T16:45:41.904Z,5.71
2023-03-06T16:48:16.007Z,5.67
2023-03-06T16:50:44.726Z,5.64
2023-03-06T16:53:14.261Z,5.61
2023-03-06T16:55:42.715Z,5.58
2023-03-06T16:58:11.273Z,5.56
2023-03-06T17:00:39.746Z,5.54
2023-03-06T17:03:08.112Z,5.52
2023-03-06T17:05:37.365Z,5.49
2023-03-06T17:08:05.922Z,5.48
2023-03-06T17:10:35.078Z,5.46
2023-03-06T17:13:04.244Z,5.44
2023-03-06T17:15:32.670Z,5.40
2023-03-06T17:18:01.139Z,5.37
2023-03-06T17:20:30.170Z,5.34
2023-03-06T17:22:58.668Z,5.30
2023-03-06T17:25:27.188Z,5.31
2023-03-06T17:27:55.970Z,5.28
2023-03-06T17:30:24.458Z,5.20
2023-03-06T17:32:53.879Z,5.20
2023-03-06T17:35:22.421Z,5.20
2023-03-06T17:37:51.398Z,5.18
2023-03-06T17:40:20.133Z,5.13
2023-03-06T17:42:48.621Z,5.14
2023-03-06T17:45:17.080Z,5.14
2023-03-06T17:47:47.407Z,5.13
2023-03-06T17:50:17.396Z,5.13
2023-03-06T17:52:46.093Z,5.12
2023-03-06T17:55:14.661Z,5.10
2023-03-06T17:57:43.147Z,5.08
2023-03-06T18:00:12.337Z,5.06
2023-03-06T18:02:42.312Z,5.01
2023-03-06T18:05:11.279Z,5.00
2023-03-06T18:07:39.693Z,4.98
2023-03-06T18:10:08.308Z,4.93
2023-03-06T18:12:36.874Z,4.88
2023-03-06T18:15:06.533Z,4.87
2023-03-06T18:17:35.052Z,4.86
2023-03-06T18:20:03.940Z,4.83
2023-03-06T18:22:32.586Z,4.82
2023-03-06T18:25:01.176Z,4.80
2023-03-06T18:27:32.384Z,4.79
2023-03-06T18:30:01.622Z,4.74
2023-03-06T18:32:30.042Z,4.69
2023-03-06T18:34:59.275Z,4.71
2023-03-06T18:37:28.007Z,4.71
2023-03-06T18:39:56.544Z,4.69
2023-03-06T18:42:26.459Z,4.69
2023-03-06T18:44:54.836Z,4.68
2023-03-06T18:47:23.206Z,4.66
2023-03-06T18:49:53.088Z,4.66
2023-03-06T18:52:22.026Z,4.69
2023-03-06T18:54:51.082Z,4.67
2023-03-06T18:57:19.846Z,4.70
2023-03-06T18:59:48.958Z,4.70
2023-03-06T19:02:17.825Z,4.71
2023-03-06T19:04:46.821Z,4.70
2023-03-06T19:07:15.676Z,4.70
2023-03-06T19:09:44.610Z,4.70
2023-03-06T19:12:13.191Z,4.69
2023-03-06T19:14:41.554Z,4.69
2023-03-06T19:17:09.965Z,4.70
2023-03-06T19:19:38.481Z,4.69
2023-03-06T19:22:06.862Z,4.69
2023-03-06T19:24:35.235Z,4.66
2023-03-06T19:27:03.661Z,4.67
2023-03-06T19:29:32.769Z,4.66
2023-03-06T19:32:01.490Z,4.63
2023-03-06T19:34:30.082Z,4.64
2023-03-06T19:36:58.566Z,4.63
2023-03-06T19:39:27.169Z,4.57
2023-03-06T19:41:55.678Z,4.60
2023-03-06T19:44:24.123Z,4.59
2023-03-06T19:46:52.460Z,4.55
2023-03-06T19:49:22.557Z,4.55
2023-03-06T19:51:51.044Z,4.53
2023-03-06T19:54:23.612Z,4.52
2023-03-06T19:56:52.131Z,4.51
2023-03-06T19:59:20.579Z,4.51
2023-03-06T20:01:49.314Z,4.50
2023-03-06T20:04:17.824Z,4.50
2023-03-06T20:06:46.943Z,4.49
2023-03-06T20:09:18.064Z,4.46
2023-03-06T20:11:48.914Z,4.42
2023-03-06T20:14:18.799Z,4.38
2023-03-06T20:16:47.206Z,4.37
2023-03-06T20:19:16.821Z,4.34
2023-03-06T20:21:45.375Z,4.33
2023-03-06T20:24:16.990Z,4.29
2023-03-06T20:26:46.291Z,4.26
2023-03-06T20:29:15.100Z,4.22
2023-03-06T20:31:43.742Z,4.22
2023-03-06T20:34:13.325Z,4.18
2023-03-06T20:36:41.760Z,4.15
2023-03-06T20:39:13.273Z,4.14
2023-03-06T20:41:42.024Z,4.10
2023-03-06T20:44:13.933Z,4.11
2023-03-06T20:46:42.402Z,4.08
2023-03-06T20:49:13.137Z,4.08
2023-03-06T20:51:42.081Z,4.07
2023-03-06T20:54:13.281Z,4.06
2023-03-06T20:56:42.805Z,4.06
2023-03-06T20:59:12.280Z,4.07
2023-03-06T21:01:42.468Z,4.08
2023-03-06T21:04:14.012Z,4.10
2023-03-06T21:06:47.007Z,4.11
2023-03-06T21:09:17.289Z,4.11
2023-03-06T21:11:45.923Z,4.14
2023-03-06T21:14:15.144Z,4.14
2023-03-06T21:16:43.978Z,4.18
2023-03-06T21:19:12.482Z,4.22
2023-03-06T21:21:41.035Z,4.25
2023-03-06T21:24:09.425Z,4.24
2023-03-06T21:26:38.253Z,4.32
2023-03-06T21:29:06.753Z,4.32
2023-03-06T21:31:35.198Z,4.34
2023-03-06T21:34:05.344Z,4.36
2023-03-06T21:36:34.344Z,4.34
2023-03-06T21:39:06.525Z,4.34
2023-03-06T21:41:35.165Z,4.35
2023-03-06T21:44:05.624Z,4.35
2023-03-06T21:46:35.041Z,4.36
2023-03-06T21:49:04.835Z,4.37
2023-03-06T21:51:33.432Z,4.38
2023-03-06T21:54:03.219Z,4.38
2023-03-06T21:56:33.691Z,4.41
2023-03-06T21:59:02.356Z,4.42
2023-03-06T22:01:31.212Z,4.40
2023-03-06T22:04:00.413Z,4.42
2023-03-06T22:06:30.374Z,4.41
2023-03-06T22:09:00.512Z,4.39
2023-03-06T22:11:31.674Z,4.37
2023-03-06T22:14:00.275Z,4.34
2023-03-06T22:16:28.820Z,4.31
2023-03-06T22:18:57.555Z,4.26
2023-03-06T22:21:26.494Z,4.21
2023-03-06T22:23:57.728Z,4.18
2023-03-06T22:26:28.016Z,4.17
2023-03-06T22:28:56.551Z,4.13
2023-03-06T22:31:26.772Z,4.10
2023-03-06T22:33:56.412Z,4.07
2023-03-06T22:36:25.309Z,4.08
2023-03-06T22:38:58.936Z,4.14
2023-03-06T22:41:28.076Z,4.12
2023-03-06T22:43:57.932Z,4.20
2023-03-06T22:46:26.743Z,4.22
2023-03-06T22:48:57.512Z,4.20
2023-03-06T22:51:26.692Z,4.15
2023-03-06T22:53:55.159Z,4.15
2023-03-06T22:56:23.965Z,4.14
2023-03-06T22:58:52.431Z,4.11
2023-03-06T23:01:23.492Z,4.16
2023-03-06T23:03:54.126Z,4.15
2023-03-06T23:06:28.070Z,4.12
2023-03-06T23:09:01.572Z,4.10
2023-03-06T23:11:30.514Z,4.10
2023-03-06T23:14:19.391Z,4.08
2023-03-06T23:17:06.845Z,4.09
2023-03-06T23:19:53.882Z,4.13
2023-03-06T23:22:40.578Z,4.13
2023-03-06T23:25:27.752Z,4.12
2023-03-06T23:27:56.182Z,4.09
2023-03-06T23:30:24.649Z,4.08
2023-03-06T23:32:53.060Z,4.07
2023-03-06T23:35:21.397Z,4.04
2023-03-06T23:37:49.800Z,4.02
2023-03-06T23:40:18.501Z,4.01
2023-03-06T23:42:46.902Z,4.00
2023-03-06T23:45:15.467Z,3.98
2023-03-06T23:47:43.813Z,3.97
2023-03-06T23:50:12.520Z,3.97
2023-03-06T23:52:40.907Z,3.98
2023-03-06T23:55:09.568Z,3.98
2023-03-06T23:57:38.005Z,4.01
